createdAt,value
2022-12-03T00:00:10.490Z,0.18
2022-12-03T00:02:39.895Z,-0.08
2022-12-03T00:05:07.495Z,-0.14
2022-12-03T00:07:35.638Z,-0.16
2022-12-03T00:10:04.014Z,-0.08
2022-12-03T00:12:31.371Z,-0.03
2022-12-03T00:14:58.780Z,-0.27
2022-12-03T00:17:26.210Z,0.02
2022-12-03T00:19:53.529Z,0.17
2022-12-03T00:22:20.850Z,0.23
2022-12-03T00:24:48.564Z,0.16
2022-12-03T00:27:15.880Z,0.19
2022-12-03T00:29:43.248Z,-0.05
2022-12-03T00:32:10.523Z,-0.18
2022-12-03T00:34:37.831Z,-0.22
2022-12-03T00:37:05.221Z,-0.51
2022-12-03T00:39:32.577Z,-0.52
2022-12-03T00:41:59.920Z,-0.20
2022-12-03T00:44:27.307Z,-0.01
2022-12-03T00:46:54.636Z,-0.13
2022-12-03T00:49:22.034Z,-0.21
2022-12-03T00:51:49.460Z,-0.40
2022-12-03T00:54:16.774Z,-0.66
2022-12-03T00:56:44.082Z,-0.61
2022-12-03T00:59:12.577Z,-0.35
2022-12-03T01:01:40.557Z,-0.43
2022-12-03T01:04:08.152Z,-0.26
2022-12-03T01:06:35.585Z,-0.32
2022-12-03T01:09:03.070Z,-0.28
2022-12-03T01:11:39.580Z,-0.36
2022-12-03T01:14:09.755Z,-0.23
2022-12-03T01:16:37.382Z,-0.31
2022-12-03T01:19:06.143Z,-0.16
2022-12-03T01:21:33.547Z,-0.28
2022-12-03T01:24:01.084Z,-0.21
2022-12-03T01:26:28.376Z,-0.15
2022-12-03T01:28:55.765Z,-0.25
2022-12-03T01:31:41.618Z,-0.17
2022-12-03T01:34:09.007Z,-0.43
2022-12-03T01:36:36.320Z,-0.25
2022-12-03T01:39:04.194Z,-0.29
2022-12-03T01:41:32.723Z,-0.57
2022-12-03T01:44:02.265Z,-0.44
2022-12-03T01:46:39.472Z,-0.44
2022-12-03T01:49:09.983Z,-0.55
2022-12-03T01:51:37.325Z,-0.61
2022-12-03T01:54:04.865Z,-0.80
2022-12-03T01:56:32.190Z,-0.69
2022-12-03T01:58:59.465Z,-0.33
2022-12-03T02:01:27.555Z,-0.30
2022-12-03T02:03:55.123Z,-0.34
2022-12-03T02:06:23.415Z,-0.23
2022-12-03T02:08:50.928Z,-0.30
2022-12-03T02:11:29.972Z,-0.26
2022-12-03T02:14:03.232Z,-0.29
2022-12-03T02:16:31.136Z,-0.33
2022-12-03T02:18:58.887Z,-0.38
2022-12-03T02:21:29.010Z,-0.38
2022-12-03T02:24:14.602Z,-0.31
2022-12-03T02:26:42.052Z,-0.46
2022-12-03T02:29:09.460Z,-0.32
2022-12-03T02:31:37.962Z,-0.51
2022-12-03T02:34:10.413Z,-0.44
2022-12-03T02:36:38.537Z,-0.50
2022-12-03T02:39:06.241Z,-0.61
2022-12-03T02:41:52.480Z,-0.39
2022-12-03T02:44:19.897Z,-0.47
2022-12-03T02:46:47.296Z,-0.51
2022-12-03T02:49:14.708Z,-0.38
2022-12-03T02:51:42.137Z,-0.58
2022-12-03T02:54:09.440Z,-0.58
2022-12-03T02:56:36.855Z,-0.46
2022-12-03T02:59:05.721Z,-0.63
2022-12-03T03:01:34.979Z,-0.65
2022-12-03T03:04:03.354Z,-0.82
2022-12-03T03:06:31.166Z,-0.65
2022-12-03T03:08:58.626Z,-0.92
2022-12-03T03:11:26.841Z,-0.84
2022-12-03T03:13:54.304Z,-0.91
2022-12-03T03:16:21.833Z,-0.85
2022-12-03T03:18:49.465Z,-1.20
2022-12-03T03:21:16.958Z,-1.15
2022-12-03T03:23:44.304Z,-1.23
2022-12-03T03:26:13.739Z,-1.42
2022-12-03T03:28:45.661Z,-1.12
2022-12-03T03:31:16.253Z,-1.27
2022-12-03T03:33:45.936Z,-1.20
2022-12-03T03:36:15.379Z,-1.08
2022-12-03T03:38:46.044Z,-1.35
2022-12-03T03:41:14.860Z,-1.34
2022-12-03T03:43:45.701Z,-1.19
2022-12-03T03:46:14.450Z,-1.29
2022-12-03T03:48:43.643Z,-1.53
2022-12-03T03:51:12.680Z,-1.33
2022-12-03T03:53:43.083Z,-1.36
2022-12-03T03:56:11.688Z,-1.47
2022-12-03T03:58:39.057Z,-1.25
2022-12-03T04:01:07.048Z,-1.26
2022-12-03T04:03:35.154Z,-1.21
2022-12-03T04:06:02.744Z,-1.27
2022-12-03T04:08:30.775Z,-1.06
2022-12-03T04:11:17.277Z,-1.38
2022-12-03T04:13:45.355Z,-1.17
2022-12-03T04:16:12.780Z,-1.17
2022-12-03T04:18:42.855Z,-1.02
2022-12-03T04:21:33.165Z,-0.95
2022-12-03T04:24:01.205Z,-1.10
2022-12-03T04:26:47.551Z,-1.12
2022-12-03T04:29:19.051Z,-1.21
2022-12-03T04:32:05.409Z,-1.18
2022-12-03T04:34:51.598Z,-1.44
2022-12-03T04:37:19.300Z,-1.19
2022-12-03T04:39:46.711Z,-1.35
2022-12-03T04:42:14.084Z,-1.19
2022-12-03T04:44:44.381Z,-1.17
2022-12-03T04:47:19.538Z,-1.14
2022-12-03T04:49:49.561Z,-1.33
2022-12-03T04:52:17.688Z,-1.06
2022-12-03T04:54:45.008Z,-1.37
2022-12-03T04:57:12.429Z,-1.25
2022-12-03T04:59:40.242Z,-1.38
2022-12-03T05:02:07.685Z,-1.33
2022-12-03T05:04:35.308Z,-1.21
2022-12-03T05:07:02.697Z,-1.46
2022-12-03T05:09:30.100Z,-1.26
2022-12-03T05:11:57.461Z,-1.42
2022-12-03T05:14:24.714Z,-1.30
2022-12-03T05:16:52.041Z,-1.46
2022-12-03T05:19:19.609Z,-1.27
2022-12-03T05:21:46.899Z,-1.44
2022-12-03T05:24:14.991Z,-1.46
2022-12-03T05:26:42.330Z,-1.42
2022-12-03T05:29:09.639Z,-1.49
2022-12-03T05:31:36.925Z,-1.72
2022-12-03T05:34:04.644Z,-1.55
2022-12-03T05:36:32.130Z,-1.47
2022-12-03T05:38:59.428Z,-1.55
2022-12-03T05:41:45.179Z,-1.79
2022-12-03T05:44:15.073Z,-1.57
2022-12-03T05:46:46.338Z,-1.66
2022-12-03T05:49:13.763Z,-1.71
2022-12-03T05:51:43.069Z,-1.48
2022-12-03T05:54:10.408Z,-1.65
2022-12-03T05:56:37.780Z,-1.64
2022-12-03T05:59:05.132Z,-1.67
2022-12-03T06:01:32.437Z,-1.58
2022-12-03T06:03:59.948Z,-1.68
2022-12-03T06:06:27.328Z,-1.52
2022-12-03T06:08:54.748Z,-1.50
2022-12-03T06:11:22.153Z,-1.39
2022-12-03T06:13:49.489Z,-1.65
2022-12-03T06:16:16.874Z,-1.44
2022-12-03T06:18:44.283Z,-1.62
2022-12-03T06:21:11.668Z,-1.53
2022-12-03T06:23:44.817Z,-1.50
2022-12-03T06:26:13.299Z,-1.24
2022-12-03T06:28:45.638Z,-1.51
2022-12-03T06:31:13.989Z,-1.56
2022-12-03T06:33:41.322Z,-1.76
2022-12-03T06:36:09.056Z,-1.33
2022-12-03T06:38:37.726Z,-1.51
2022-12-03T06:41:05.204Z,-1.53
2022-12-03T06:43:32.477Z,-1.19
2022-12-03T06:46:01.291Z,-1.37
2022-12-03T06:48:28.703Z,-1.26
2022-12-03T06:50:56.010Z,-1.22
2022-12-03T06:53:25.497Z,-1.37
2022-12-03T06:55:52.828Z,-1.08
2022-12-03T06:58:20.203Z,-1.02
2022-12-03T07:00:47.558Z,-0.82
2022-12-03T07:03:16.451Z,-0.96
2022-12-03T07:05:43.859Z,-0.69
2022-12-03T07:08:11.288Z,-0.70
2022-12-03T07:10:38.828Z,-0.46
2022-12-03T07:13:06.276Z,-0.66
2022-12-03T07:15:33.631Z,-0.27
2022-12-03T07:18:01.988Z,-0.44
2022-12-03T07:20:29.304Z,-0.36
2022-12-03T07:22:57.709Z,-0.29
2022-12-03T07:25:25.343Z,-0.35
2022-12-03T07:27:52.678Z,-0.33
2022-12-03T07:30:20.286Z,-0.14
2022-12-03T07:32:47.654Z,0.13
2022-12-03T07:35:14.990Z,0.00
2022-12-03T07:37:42.379Z,0.04
2022-12-03T07:40:10.420Z,0.24
2022-12-03T07:42:37.941Z,0.19
2022-12-03T07:45:06.201Z,0.06
2022-12-03T07:47:33.539Z,0.00
2022-12-03T07:50:00.935Z,-0.04
2022-12-03T07:52:28.275Z,0.56
2022-12-03T07:54:55.808Z,0.65
2022-12-03T07:57:23.505Z,0.91
2022-12-03T07:59:50.792Z,0.61
2022-12-03T08:02:21.291Z,0.81
2022-12-03T08:04:49.100Z,0.86
2022-12-03T08:07:16.415Z,1.13
2022-12-03T08:09:44.030Z,1.15
2022-12-03T08:12:24.567Z,0.84
2022-12-03T08:14:52.771Z,1.18
2022-12-03T08:17:21.710Z,1.27
2022-12-03T08:19:50.209Z,1.54
2022-12-03T08:22:17.574Z,1.28
2022-12-03T08:24:44.942Z,1.57
2022-12-03T08:27:18.995Z,1.70
2022-12-03T08:29:47.117Z,1.90
2022-12-03T08:32:14.570Z,1.72
2022-12-03T08:34:43.917Z,2.04
2022-12-03T08:37:18.557Z,2.08
2022-12-03T08:39:48.545Z,2.26
2022-12-03T08:42:38.441Z,2.32
2022-12-03T08:45:41.033Z,2.18
2022-12-03T08:48:34.597Z,2.42
2022-12-03T08:51:13.206Z,2.77
2022-12-03T08:53:47.697Z,2.91
2022-12-03T08:56:28.442Z,3.09
2022-12-03T08:59:18.181Z,3.26
2022-12-03T09:01:47.223Z,3.33
2022-12-03T09:04:29.184Z,3.53
2022-12-03T09:06:57.020Z,3.54
2022-12-03T09:09:25.599Z,3.69
2022-12-03T09:11:54.142Z,3.83
2022-12-03T09:14:23.576Z,3.67
2022-12-03T09:16:55.697Z,3.95
2022-12-03T09:19:25.628Z,3.92
2022-12-03T09:21:54.270Z,3.69
2022-12-03T09:24:21.592Z,3.91
2022-12-03T09:26:49.155Z,4.12
2022-12-03T09:29:16.674Z,4.25
2022-12-03T09:31:44.096Z,4.55
2022-12-03T09:34:26.730Z,4.56
2022-12-03T09:36:54.069Z,4.43
2022-12-03T09:39:21.432Z,4.34
2022-12-03T09:41:49.815Z,4.70
2022-12-03T09:44:18.500Z,4.77
2022-12-03T09:46:46.807Z,4.87
2022-12-03T09:49:17.609Z,4.88
2022-12-03T09:51:45.588Z,5.07
2022-12-03T09:54:23.860Z,5.22
2022-12-03T09:56:52.763Z,5.39
2022-12-03T09:59:21.750Z,5.03
2022-12-03T10:01:49.390Z,5.23
2022-12-03T10:04:17.748Z,5.66
2022-12-03T10:06:46.227Z,5.76
2022-12-03T10:09:17.509Z,5.86
2022-12-03T10:11:44.996Z,5.74
2022-12-03T10:14:15.004Z,5.99
2022-12-03T10:16:42.272Z,6.03
2022-12-03T10:19:18.105Z,6.04
2022-12-03T10:21:45.430Z,5.88
2022-12-03T10:24:34.882Z,6.17
2022-12-03T10:27:22.738Z,6.03
2022-12-03T10:30:01.416Z,6.30
2022-12-03T10:32:50.154Z,6.15
2022-12-03T10:35:20.752Z,6.12
2022-12-03T10:38:05.483Z,6.11
2022-12-03T10:40:38.132Z,6.22
2022-12-03T10:43:27.078Z,6.36
2022-12-03T10:46:04.648Z,6.41
2022-12-03T10:48:32.298Z,6.28
2022-12-03T10:51:11.396Z,6.59
2022-12-03T10:53:40.642Z,6.64
2022-12-03T10:56:14.821Z,6.80
2022-12-03T10:58:42.290Z,6.47
2022-12-03T11:01:21.281Z,6.74
2022-12-03T11:03:49.771Z,6.69
2022-12-03T11:06:20.138Z,6.94
2022-12-03T11:08:58.556Z,6.96
2022-12-03T11:11:29.549Z,6.90
2022-12-03T11:14:00.581Z,7.09
2022-12-03T11:16:39.980Z,7.00
2022-12-03T11:19:13.291Z,7.00
2022-12-03T11:22:05.465Z,7.13
2022-12-03T11:24:34.564Z,7.11
2022-12-03T11:27:01.797Z,7.22
2022-12-03T11:29:49.448Z,7.21
2022-12-03T11:32:38.727Z,7.40
2022-12-03T11:35:12.634Z,7.59
2022-12-03T11:37:40.207Z,7.53
2022-12-03T11:40:16.802Z,7.30
2022-12-03T11:42:45.876Z,7.51
2022-12-03T11:45:30.384Z,7.31
2022-12-03T11:48:23.783Z,7.46
2022-12-03T11:50:52.307Z,7.39
2022-12-03T11:53:22.608Z,7.49
2022-12-03T11:56:04.140Z,7.63
2022-12-03T11:58:32.991Z,7.45
2022-12-03T12:01:02.668Z,7.49
2022-12-03T12:03:33.060Z,7.60
2022-12-03T12:06:11.348Z,7.38
2022-12-03T12:08:52.333Z,7.30
2022-12-03T12:11:26.222Z,7.42
2022-12-03T12:13:55.537Z,7.59
2022-12-03T12:16:51.809Z,7.60
2022-12-03T12:19:40.598Z,7.51
2022-12-03T12:22:24.914Z,7.45
2022-12-03T12:25:25.490Z,7.54
2022-12-03T12:27:55.064Z,7.33
2022-12-03T12:30:23.231Z,7.41
2022-12-03T12:32:51.451Z,7.41
2022-12-03T12:35:18.855Z,7.39
2022-12-03T12:38:06.357Z,7.41
2022-12-03T12:40:39.318Z,7.35
2022-12-03T12:43:29.617Z,7.26
2022-12-03T12:46:18.546Z,7.26
2022-12-03T12:48:46.388Z,7.40
2022-12-03T12:51:19.616Z,7.29
2022-12-03T12:53:47.914Z,6.96
2022-12-03T12:56:32.214Z,7.40
2022-12-03T12:59:13.803Z,7.30
2022-12-03T13:01:43.213Z,7.23
2022-12-03T13:04:20.242Z,7.28
2022-12-03T13:06:50.028Z,7.12
2022-12-03T13:09:23.374Z,7.23
2022-12-03T13:12:19.530Z,7.12
2022-12-03T13:14:46.886Z,7.07
2022-12-03T13:17:16.959Z,6.90
2022-12-03T13:19:49.363Z,7.07
2022-12-03T13:22:22.866Z,7.07
2022-12-03T13:24:51.786Z,7.05
2022-12-03T13:27:22.683Z,7.01
2022-12-03T13:29:52.939Z,6.89
2022-12-03T13:32:23.468Z,6.91
2022-12-03T13:34:50.872Z,6.98
2022-12-03T13:37:25.369Z,6.89
2022-12-03T13:39:56.197Z,6.86
2022-12-03T13:42:41.600Z,6.92
2022-12-03T13:45:15.070Z,6.90
2022-12-03T13:47:44.990Z,6.74
2022-12-03T13:50:38.537Z,6.45
2022-12-03T13:53:11.923Z,6.74
2022-12-03T13:55:43.754Z,6.79
2022-12-03T13:58:11.133Z,6.77
2022-12-03T14:00:38.609Z,6.37
2022-12-03T14:03:06.012Z,6.49
2022-12-03T14:05:33.318Z,6.43
2022-12-03T14:08:03.641Z,6.54
2022-12-03T14:10:31.077Z,6.19
2022-12-03T14:12:58.800Z,6.25
2022-12-03T14:15:26.598Z,6.26
2022-12-03T14:17:54.050Z,6.37
2022-12-03T14:20:21.583Z,6.01
2022-12-03T14:22:49.112Z,5.96
2022-12-03T14:25:16.388Z,5.98
2022-12-03T14:27:43.769Z,5.78
2022-12-03T14:30:11.696Z,5.67
2022-12-03T14:32:38.987Z,5.65
2022-12-03T14:35:10.156Z,5.41
2022-12-03T14:37:37.682Z,5.47
2022-12-03T14:40:07.083Z,5.67
2022-12-03T14:42:35.428Z,5.67
2022-12-03T14:45:04.623Z,5.41
2022-12-03T14:47:31.883Z,5.64
2022-12-03T14:49:59.266Z,5.55
2022-12-03T14:52:26.596Z,5.23
2022-12-03T14:54:54.013Z,5.36
2022-12-03T14:57:21.444Z,5.44
2022-12-03T14:59:48.786Z,5.39
2022-12-03T15:02:16.258Z,5.19
2022-12-03T15:04:43.590Z,4.88
2022-12-03T15:07:10.971Z,5.08
2022-12-03T15:09:38.254Z,5.08
2022-12-03T15:12:05.926Z,4.98
2022-12-03T15:14:33.268Z,5.03
2022-12-03T15:17:00.594Z,4.82
2022-12-03T15:19:27.924Z,4.81
2022-12-03T15:21:55.215Z,5.13
2022-12-03T15:24:22.554Z,4.88
2022-12-03T15:26:53.382Z,4.90
2022-12-03T15:29:21.078Z,4.78
2022-12-03T15:31:48.469Z,4.96
2022-12-03T15:34:21.875Z,4.66
2022-12-03T15:36:50.203Z,4.90
2022-12-03T15:39:17.530Z,4.76
2022-12-03T15:41:44.858Z,4.69
2022-12-03T15:44:12.295Z,4.52
2022-12-03T15:46:39.698Z,4.62
2022-12-03T15:49:07.157Z,4.66
2022-12-03T15:51:34.492Z,4.49
2022-12-03T15:54:01.838Z,4.38
2022-12-03T15:56:29.219Z,4.50
2022-12-03T15:58:57.655Z,4.69
2022-12-03T16:01:25.142Z,4.55
2022-12-03T16:03:52.512Z,4.40
2022-12-03T16:06:19.867Z,4.26
2022-12-03T16:08:48.227Z,4.39
2022-12-03T16:11:15.857Z,4.38
2022-12-03T16:13:43.147Z,4.48
2022-12-03T16:16:10.511Z,4.43
2022-12-03T16:18:37.969Z,4.45
2022-12-03T16:21:05.365Z,4.48
2022-12-03T16:23:32.700Z,4.50
2022-12-03T16:26:00.043Z,4.39
2022-12-03T16:28:27.349Z,4.34
2022-12-03T16:30:54.820Z,4.30
2022-12-03T16:33:27.337Z,4.34
2022-12-03T16:35:55.397Z,4.30
2022-12-03T16:38:22.779Z,3.79
2022-12-03T16:40:50.204Z,3.92
2022-12-03T16:43:19.747Z,3.78
2022-12-03T16:45:56.202Z,3.83
2022-12-03T16:48:23.664Z,4.01
2022-12-03T16:50:50.983Z,4.07
2022-12-03T16:53:18.581Z,4.01
2022-12-03T16:55:46.015Z,3.80
2022-12-03T16:58:13.365Z,3.99
2022-12-03T17:00:40.678Z,3.93
2022-12-03T17:03:10.767Z,3.82
2022-12-03T17:05:40.994Z,3.99
2022-12-03T17:08:09.428Z,3.97
2022-12-03T17:10:36.898Z,3.75
2022-12-03T17:13:11.491Z,3.75
2022-12-03T17:15:39.945Z,3.54
2022-12-03T17:18:08.559Z,3.87
2022-12-03T17:20:36.309Z,3.96
2022-12-03T17:23:04.064Z,3.94
2022-12-03T17:25:31.391Z,3.95
2022-12-03T17:27:58.690Z,3.87
2022-12-03T17:30:26.026Z,3.80
2022-12-03T17:32:53.408Z,3.85
2022-12-03T17:35:20.773Z,3.84
2022-12-03T17:37:48.054Z,3.68
2022-12-03T17:40:17.275Z,3.73
2022-12-03T17:42:44.653Z,3.63
2022-12-03T17:45:12.659Z,3.84
2022-12-03T17:47:40.072Z,3.64
2022-12-03T17:50:08.325Z,3.88
2022-12-03T17:52:35.763Z,3.93
2022-12-03T17:55:15.744Z,3.76
2022-12-03T17:57:48.772Z,3.74
2022-12-03T18:00:16.421Z,3.34
2022-12-03T18:02:43.690Z,3.43
2022-12-03T18:05:11.050Z,3.53
2022-12-03T18:07:38.429Z,3.22
2022-12-03T18:10:06.601Z,3.34
2022-12-03T18:12:34.127Z,3.52
2022-12-03T18:15:01.426Z,3.53
2022-12-03T18:17:28.722Z,3.48
2022-12-03T18:19:56.420Z,3.41
2022-12-03T18:22:24.110Z,3.55
2022-12-03T18:24:52.192Z,3.23
2022-12-03T18:27:24.491Z,3.33
2022-12-03T18:29:52.546Z,3.22
2022-12-03T18:32:28.821Z,3.17
2022-12-03T18:34:57.770Z,3.03
2022-12-03T18:37:27.913Z,3.29
2022-12-03T18:39:56.387Z,3.38
2022-12-03T18:42:23.981Z,3.14
2022-12-03T18:44:53.823Z,3.28
2022-12-03T18:47:24.572Z,3.23
2022-12-03T18:49:52.353Z,3.30
2022-12-03T18:52:22.084Z,3.38
2022-12-03T18:54:49.511Z,3.53
2022-12-03T18:57:17.925Z,3.38
2022-12-03T18:59:45.312Z,3.42
2022-12-03T19:02:45.958Z,3.32
2022-12-03T19:05:06.127Z,3.39
2022-12-03T19:07:33.587Z,3.25
2022-12-03T19:10:01.052Z,3.54
2022-12-03T19:12:28.545Z,3.20
2022-12-03T19:14:55.931Z,3.30
2022-12-03T19:17:23.270Z,3.46
2022-12-03T19:19:50.626Z,3.64
2022-12-03T19:22:18.071Z,3.71
2022-12-03T19:24:45.361Z,3.40
2022-12-03T19:27:12.681Z,3.50
2022-12-03T19:29:40.559Z,3.51
2022-12-03T19:32:08.956Z,3.50
2022-12-03T19:34:36.615Z,3.41
2022-12-03T19:37:03.940Z,3.20
2022-12-03T19:39:31.958Z,3.21
2022-12-03T19:41:59.362Z,3.27
2022-12-03T19:44:26.723Z,3.35
2022-12-03T19:46:54.376Z,3.12
2022-12-03T19:49:22.341Z,3.27
2022-12-03T19:51:50.194Z,3.50
2022-12-03T19:54:18.498Z,3.44
2022-12-03T19:56:46.361Z,3.44
2022-12-03T19:59:14.234Z,3.55
2022-12-03T20:01:43.208Z,3.42
2022-12-03T20:04:11.718Z,3.30
2022-12-03T20:06:39.539Z,3.14
2022-12-03T20:09:11.453Z,3.43
2022-12-03T20:11:41.162Z,3.29
2022-12-03T20:14:12.144Z,3.42
2022-12-03T20:16:39.775Z,3.48
2022-12-03T20:19:10.080Z,3.45
2022-12-03T20:21:38.161Z,3.35
2022-12-03T20:24:06.566Z,3.38
2022-12-03T20:26:34.528Z,3.21
2022-12-03T20:29:02.230Z,3.14
2022-12-03T20:31:31.489Z,3.17
2022-12-03T20:34:01.069Z,3.14
2022-12-03T20:36:30.307Z,3.16
2022-12-03T20:38:59.873Z,3.11
2022-12-03T20:41:28.000Z,2.92
2022-12-03T20:43:55.725Z,2.69
2022-12-03T20:46:25.915Z,2.90
2022-12-03T20:48:55.044Z,3.03
2022-12-03T20:51:25.108Z,2.90
2022-12-03T20:53:52.511Z,2.88
2022-12-03T20:56:26.133Z,2.87
2022-12-03T20:58:54.333Z,2.74
2022-12-03T21:01:26.736Z,2.83
2022-12-03T21:03:55.721Z,2.85
2022-12-03T21:06:25.585Z,2.73
2022-12-03T21:08:54.062Z,3.21
2022-12-03T21:11:24.284Z,3.26
2022-12-03T21:13:53.515Z,2.77
2022-12-03T21:16:52.007Z,2.79
2022-12-03T21:19:13.691Z,2.79
2022-12-03T21:21:41.228Z,2.61
2022-12-03T21:24:08.790Z,2.66
2022-12-03T21:26:36.469Z,2.73
2022-12-03T21:29:03.935Z,2.76
2022-12-03T21:31:31.933Z,2.61
2022-12-03T21:33:59.514Z,2.60
2022-12-03T21:36:26.925Z,2.54
2022-12-03T21:38:54.407Z,2.61
2022-12-03T21:41:21.748Z,2.39
2022-12-03T21:43:49.012Z,2.76
2022-12-03T21:47:11.510Z,2.61
2022-12-03T21:49:04.758Z,2.69
2022-12-03T21:51:32.099Z,2.29
2022-12-03T21:53:59.403Z,2.18
2022-12-03T21:56:26.741Z,2.09
2022-12-03T21:58:54.873Z,2.14
2022-12-03T22:01:24.079Z,1.98
2022-12-03T22:03:51.767Z,2.27
2022-12-03T22:06:19.259Z,2.34
2022-12-03T22:08:47.050Z,2.17
2022-12-03T22:11:20.735Z,2.34
2022-12-03T22:13:48.711Z,2.23
2022-12-03T22:16:18.720Z,2.45
2022-12-03T22:18:46.680Z,2.32
2022-12-03T22:21:16.717Z,2.65
2022-12-03T22:23:44.610Z,2.36
2022-12-03T22:26:14.369Z,2.55
2022-12-03T22:28:46.324Z,2.35
2022-12-03T22:31:14.378Z,2.52
2022-12-03T22:33:42.356Z,2.40
2022-12-03T22:36:20.153Z,2.57
2022-12-03T22:38:50.750Z,2.21
2022-12-03T22:41:19.274Z,2.57
2022-12-03T22:43:47.301Z,2.42
2022-12-03T22:46:15.586Z,2.00
2022-12-03T22:48:46.554Z,2.23
2022-12-03T22:51:26.725Z,2.27
2022-12-03T22:53:58.974Z,2.08
2022-12-03T22:56:27.424Z,2.01
2022-12-03T22:58:55.172Z,2.41
2022-12-03T23:01:28.062Z,2.19
2022-12-03T23:03:55.909Z,2.27
2022-12-03T23:06:23.876Z,2.51
2022-12-03T23:08:51.527Z,2.37
2022-12-03T23:11:18.901Z,2.15
2022-12-03T23:13:46.450Z,2.15
2022-12-03T23:16:17.838Z,2.24
2022-12-03T23:18:45.842Z,2.42
2022-12-03T23:21:29.344Z,2.21
2022-12-03T23:23:59.555Z,2.37
2022-12-03T23:26:28.111Z,2.04
2022-12-03T23:28:55.784Z,2.28
2022-12-03T23:31:26.210Z,2.20
2022-12-03T23:33:54.687Z,1.97
2022-12-03T23:36:23.554Z,2.04
2022-12-03T23:38:51.045Z,1.81
2022-12-03T23:41:21.600Z,1.79
2022-12-03T23:43:49.602Z,1.50
2022-12-03T23:46:20.213Z,1.76
2022-12-03T23:48:48.265Z,1.62
2022-12-03T23:51:18.883Z,1.72
2022-12-03T23:53:47.044Z,1.59
2022-12-03T23:56:21.175Z,1.63
2022-12-03T23:58:48.985Z,1.26
